Time;durP1;ratioP1;P1;durP2;ratioP2;P2;SDS_P1;SDS_P2;PMS_P1;PMS_P2;Temp;Humidity;BMP_temperature;BMP_pressure;BME280_temperature;BME280_humidity;BME280_pressure;Samples;Min_cycle;Max_cycle;Signal;HPM_P1;HPM_P2
2021/04/06 00:02:14;;;;;;;3.77;2.70;;;-1.00;99.90;;;;;;5111081;28;20456;-74
2021/04/06 00:04:46;;;;;;;6.57;2.60;;;-1.10;99.90;;;;;;5111467;28;20420;-74
2021/04/06 00:07:17;;;;;;;2.97;2.53;;;-1.20;99.90;;;;;;5111141;28;20492;-74
2021/04/06 00:09:47;;;;;;;3.80;2.60;;;-1.30;99.90;;;;;;5110589;28;20471;-74
2021/04/06 00:12:16;;;;;;;3.80;3.10;;;-1.30;99.90;;;;;;5110727;28;21051;-74
2021/04/06 00:14:49;;;;;;;3.13;2.80;;;-1.30;99.90;;;;;;5109351;28;20820;-73
2021/04/06 00:17:17;;;;;;;5.43;3.00;;;-1.30;99.90;;;;;;5109572;28;20969;-74
2021/04/06 00:19:46;;;;;;;7.37;3.07;;;-1.30;99.90;;;;;;5110848;28;20432;-74
2021/04/06 00:22:16;;;;;;;6.40;3.30;;;-1.30;99.90;;;;;;5110926;28;20448;-74
2021/04/06 00:24:46;;;;;;;3.10;2.70;;;-1.20;99.90;;;;;;5111216;28;20943;-74
2021/04/06 00:27:16;;;;;;;1.70;1.60;;;-1.20;99.90;;;;;;5111088;28;20523;-74
2021/04/06 00:29:51;;;;;;;6.00;2.80;;;-1.20;99.90;;;;;;5110699;28;20516;-74
2021/04/06 00:32:20;;;;;;;5.67;3.17;;;-1.20;99.90;;;;;;5112692;28;20801;-74
2021/04/06 00:34:47;;;;;;;4.40;3.07;;;-1.30;99.90;;;;;;5114759;28;20440;-74
2021/04/06 00:37:17;;;;;;;3.30;2.73;;;-1.30;99.90;;;;;;5114265;28;20470;-74
2021/04/06 00:39:44;;;;;;;3.27;2.60;;;-1.30;99.90;;;;;;5113766;28;20535;-74
2021/04/06 00:42:15;;;;;;;3.20;2.60;;;-1.30;99.90;;;;;;5114675;28;20446;-74
2021/04/06 00:44:46;;;;;;;4.00;2.70;;;-1.20;99.90;;;;;;5114752;28;20975;-74
2021/04/06 00:47:15;;;;;;;9.73;2.77;;;-1.20;99.90;;;;;;5114615;28;20902;-74
2021/04/06 00:49:43;;;;;;;3.97;3.37;;;-1.20;99.90;;;;;;5114387;28;20502;-74
2021/04/06 00:52:11;;;;;;;2.97;2.73;;;-1.20;99.90;;;;;;5114249;28;20469;-74
2021/04/06 00:54:38;;;;;;;4.60;2.60;;;-1.30;99.90;;;;;;5113372;28;20443;-74
2021/04/06 00:57:07;;;;;;;3.17;2.90;;;-1.40;99.90;;;;;;5114353;28;20444;-74
2021/04/06 00:59:34;;;;;;;4.00;2.60;;;-1.50;99.90;;;;;;5114184;28;20461;-74
2021/04/06 01:02:03;;;;;;;8.27;3.33;;;-1.50;99.90;;;;;;5114484;28;20456;-75
2021/04/06 01:04:37;;;;;;;3.03;2.73;;;-1.50;99.90;;;;;;5114360;28;20807;-74
2021/04/06 01:07:07;;;;;;;6.70;2.40;;;-1.60;99.90;;;;;;5114346;28;20420;-74
2021/04/06 01:09:42;;;;;;;6.53;3.50;;;-1.70;99.90;;;;;;5113642;28;20470;-74
2021/04/06 01:12:11;;;;;;;7.70;2.90;;;-1.70;99.90;;;;;;5114147;28;20523;-74
2021/04/06 01:14:39;;;;;;;8.97;6.33;;;-1.80;99.90;;;;;;5114188;28;20424;-74
2021/04/06 01:17:07;;;;;;;3.20;2.90;;;-1.90;99.90;;;;;;5114296;28;20452;-75
2021/04/06 01:19:36;;;;;;;5.73;2.30;;;-2.00;99.90;;;;;;5113648;28;20439;-74
2021/04/06 01:22:06;;;;;;;3.10;2.60;;;-2.00;99.90;;;;;;5113811;28;20477;-75
2021/04/06 01:24:34;;;;;;;3.37;2.57;;;-2.10;99.90;;;;;;5113619;28;20456;-74
2021/04/06 01:27:02;;;;;;;9.57;2.83;;;-2.10;99.90;;;;;;5114165;28;20436;-74
2021/04/06 01:29:29;;;;;;;2.93;2.63;;;-2.20;99.90;;;;;;5113763;28;20464;-74
2021/04/06 01:31:58;;;;;;;3.83;2.93;;;-2.20;99.90;;;;;;5114065;28;20866;-74
2021/04/06 01:34:25;;;;;;;5.83;2.87;;;-2.20;99.90;;;;;;5113625;28;20504;-74
2021/04/06 01:36:54;;;;;;;3.47;2.63;;;-2.20;99.90;;;;;;5112824;28;20436;-74
2021/04/06 01:39:22;;;;;;;4.73;3.70;;;-2.30;99.90;;;;;;5112550;28;20484;-75
2021/04/06 01:41:55;;;;;;;6.53;3.77;;;-2.40;99.90;;;;;;5113546;28;20824;-74
2021/04/06 01:44:22;;;;;;;2.70;2.50;;;-2.40;99.90;;;;;;5112650;28;20447;-74
2021/04/06 01:46:49;;;;;;;4.60;2.93;;;-2.40;99.90;;;;;;5113532;28;20474;-75
2021/04/06 01:49:17;;;;;;;3.87;2.93;;;-2.50;99.90;;;;;;5113040;28;20551;-75
2021/04/06 01:51:45;;;;;;;3.20;2.87;;;-2.50;99.90;;;;;;5113741;28;20851;-74
2021/04/06 01:54:18;;;;;;;4.53;3.23;;;-2.50;99.90;;;;;;5112957;28;20448;-74
2021/04/06 01:56:49;;;;;;;5.17;3.10;;;-2.40;99.90;;;;;;5113385;28;20452;-74
2021/04/06 01:59:21;;;;;;;6.60;3.80;;;-2.60;99.90;;;;;;5113172;28;20439;-75
2021/04/06 02:01:51;;;;;;;5.83;3.40;;;-2.70;99.90;;;;;;5113095;28;20494;-74
2021/04/06 02:04:22;;;;;;;4.43;3.33;;;-2.70;99.90;;;;;;5113153;28;20454;-74
2021/04/06 02:06:50;;;;;;;4.27;3.20;;;-2.70;99.90;;;;;;5113043;28;20485;-74
2021/04/06 02:09:19;;;;;;;3.10;2.70;;;-2.70;99.90;;;;;;5112447;28;20486;-74
2021/04/06 02:11:46;;;;;;;4.30;3.00;;;-2.70;99.90;;;;;;5112954;28;20455;-74
2021/04/06 02:14:15;;;;;;;3.30;3.00;;;-2.80;99.90;;;;;;5112859;28;20439;-74
2021/04/06 02:16:48;;;;;;;4.77;3.67;;;-2.80;99.90;;;;;;5113185;28;20426;-74
2021/04/06 02:19:23;;;;;;;6.03;3.43;;;-2.90;99.90;;;;;;5112889;28;20865;-74
2021/04/06 02:21:52;;;;;;;5.07;3.40;;;-2.90;99.90;;;;;;5112783;28;20466;-74
2021/04/06 02:24:34;;;;;;;5.17;2.93;;;-2.90;99.90;;;;;;5112564;28;20450;-74
2021/04/06 02:27:10;;;;;;;3.60;2.17;;;-2.90;99.90;;;;;;5112816;28;20447;-74
2021/04/06 02:29:38;;;;;;;8.00;2.83;;;-2.90;99.90;;;;;;5112358;28;20459;-74
2021/04/06 02:32:14;;;;;;;4.57;3.20;;;-2.90;99.90;;;;;;5112502;28;20482;-74
2021/04/06 02:34:43;;;;;;;4.40;3.27;;;-2.90;99.90;;;;;;5112468;28;20435;-74
2021/04/06 02:37:18;;;;;;;6.47;3.00;;;-3.00;99.90;;;;;;5112484;28;20440;-74
2021/04/06 02:39:45;;;;;;;4.40;2.40;;;-3.00;99.90;;;;;;5111071;28;20435;-74
2021/04/06 02:42:22;;;;;;;2.60;2.23;;;-3.00;99.90;;;;;;5112298;28;20451;-74
2021/04/06 02:44:50;;;;;;;4.10;3.17;;;-3.10;99.90;;;;;;5112204;28;20451;-73
2021/04/06 02:47:18;;;;;;;3.33;2.67;;;-3.20;99.90;;;;;;5112332;28;20504;-73
2021/04/06 02:49:46;;;;;;;2.77;2.47;;;-3.10;99.90;;;;;;5112091;28;20468;-73
2021/04/06 02:52:14;;;;;;;10.63;3.70;;;-3.20;99.90;;;;;;5112305;28;20508;-74
2021/04/06 02:54:42;;;;;;;3.10;2.80;;;-3.20;99.90;;;;;;5111941;28;20944;-73
2021/04/06 02:57:22;;;;;;;12.57;2.50;;;-3.20;99.90;;;;;;5111572;28;20442;-73
2021/04/06 02:59:49;;;;;;;5.30;2.90;;;-3.30;99.90;;;;;;5111922;28;20893;-73
2021/04/06 03:02:17;;;;;;;6.50;3.10;;;-3.30;99.90;;;;;;5111971;28;20505;-73
2021/04/06 03:04:45;;;;;;;3.33;2.47;;;-3.30;99.90;;;;;;5112153;28;20423;-73
2021/04/06 03:07:22;;;;;;;17.50;3.37;;;-3.40;99.90;;;;;;5112054;28;20799;-73
2021/04/06 03:09:56;;;;;;;4.87;2.70;;;-3.40;99.90;;;;;;5110734;28;20520;-73
2021/04/06 03:12:28;;;;;;;6.00;2.87;;;-3.50;99.90;;;;;;5111721;28;20448;-73
2021/04/06 03:14:55;;;;;;;6.30;2.97;;;-3.50;99.90;;;;;;5111972;28;20421;-73
2021/04/06 03:17:23;;;;;;;2.63;2.40;;;-3.50;99.90;;;;;;5111621;28;20442;-73
2021/04/06 03:19:56;;;;;;;2.97;2.70;;;-3.60;99.90;;;;;;5111057;28;20920;-73
2021/04/06 03:22:22;;;;;;;3.70;3.13;;;-3.50;99.90;;;;;;5111816;28;20818;-73
2021/04/06 03:24:50;;;;;;;2.63;2.40;;;-3.60;99.90;;;;;;5111344;28;20432;-74
2021/04/06 03:27:26;;;;;;;5.07;3.27;;;-3.60;99.90;;;;;;5111850;28;20942;-73
2021/04/06 03:29:53;;;;;;;9.53;2.80;;;-3.50;99.90;;;;;;5111354;28;20980;-73
2021/04/06 03:32:23;;;;;;;5.60;3.40;;;-3.50;99.90;;;;;;5111286;28;20456;-73
2021/04/06 03:34:52;;;;;;;3.93;3.37;;;-3.60;99.90;;;;;;5111625;28;20800;-74
2021/04/06 03:37:22;;;;;;;7.43;5.40;;;-3.70;99.90;;;;;;5111464;28;20427;-73
2021/04/06 03:39:49;;;;;;;4.63;3.20;;;-3.80;99.90;;;;;;5111058;28;20441;-73
2021/04/06 03:42:22;;;;;;;4.20;3.33;;;-3.80;99.90;;;;;;5111301;28;20971;-74
2021/04/06 03:44:49;;;;;;;4.77;3.13;;;-3.70;99.90;;;;;;5110835;28;20816;-73
2021/04/06 03:47:16;;;;;;;7.63;3.50;;;-3.70;99.90;;;;;;5110426;28;20471;-73
2021/04/06 03:49:48;;;;;;;5.90;3.17;;;-3.70;99.90;;;;;;5111023;28;20477;-74
2021/04/06 03:52:16;;;;;;;4.40;2.90;;;-3.70;99.90;;;;;;5111174;28;20466;-73
2021/04/06 03:54:45;;;;;;;6.10;3.23;;;-3.70;99.90;;;;;;5111449;28;20436;-73
2021/04/06 03:57:23;;;;;;;4.13;3.77;;;-3.80;99.90;;;;;;5111413;28;20432;-73
2021/04/06 03:59:50;;;;;;;5.30;3.90;;;-3.80;99.90;;;;;;5111158;28;20432;-73
2021/04/06 04:02:17;;;;;;;5.27;3.30;;;-3.80;99.90;;;;;;5111172;28;20980;-73
2021/04/06 04:04:44;;;;;;;2.70;2.50;;;-3.80;99.90;;;;;;5111485;28;20488;-73
2021/04/06 04:07:13;;;;;;;7.80;3.57;;;-3.80;99.90;;;;;;5112827;28;20427;-74
2021/04/06 04:09:39;;;;;;;4.20;3.80;;;-3.80;99.90;;;;;;5115096;28;20815;-73
2021/04/06 04:12:07;;;;;;;3.80;3.37;;;-3.90;99.90;;;;;;5115281;28;20456;-73
2021/04/06 04:14:34;;;;;;;4.50;3.30;;;-3.90;99.90;;;;;;5115334;28;20518;-73
2021/04/06 04:17:00;;;;;;;7.33;3.17;;;-3.90;99.90;;;;;;5115175;28;20425;-74
2021/04/06 04:19:28;;;;;;;4.50;2.70;;;-3.90;99.90;;;;;;5115082;28;20507;-74
2021/04/06 04:21:55;;;;;;;4.03;3.00;;;-4.00;99.90;;;;;;5115216;28;20600;-74
2021/04/06 04:24:23;;;;;;;3.00;2.70;;;-4.00;99.90;;;;;;5114869;28;20424;-74
2021/04/06 04:26:50;;;;;;;5.43;3.00;;;-4.00;99.90;;;;;;5115141;28;20434;-74
2021/04/06 04:29:17;;;;;;;3.03;2.40;;;-4.00;99.90;;;;;;5114811;28;20424;-76
2021/04/06 04:31:45;;;;;;;3.60;3.00;;;-4.10;99.90;;;;;;5114747;28;20470;-76
2021/04/06 04:34:12;;;;;;;3.33;2.77;;;-4.10;99.90;;;;;;5115162;28;20808;-76
2021/04/06 04:36:39;;;;;;;20.20;2.40;;;-4.20;99.90;;;;;;5114965;28;20434;-75
2021/04/06 04:39:06;;;;;;;12.53;3.17;;;-4.20;99.90;;;;;;5114498;28;20507;-76
2021/04/06 04:41:34;;;;;;;3.77;3.00;;;-4.20;99.90;;;;;;5113864;28;20464;-75
2021/04/06 04:44:01;;;;;;;3.23;2.77;;;-4.20;99.90;;;;;;5114303;28;20443;-74
2021/04/06 04:46:29;;;;;;;5.07;2.80;;;-4.20;99.90;;;;;;5114581;28;20424;-74
2021/04/06 04:48:58;;;;;;;3.03;2.50;;;-4.30;99.90;;;;;;5113910;28;20835;-74
2021/04/06 04:51:25;;;;;;;4.63;2.10;;;-4.20;99.90;;;;;;5113638;28;20497;-75
2021/04/06 04:53:52;;;;;;;4.60;2.50;;;-4.20;99.90;;;;;;5114511;28;20484;-74
2021/04/06 04:56:19;;;;;;;2.83;2.53;;;-4.10;99.90;;;;;;5114604;28;20434;-74
2021/04/06 04:58:47;;;;;;;4.17;3.77;;;-4.10;99.90;;;;;;5114371;28;20557;-76
2021/04/06 05:01:14;;;;;;;4.33;3.50;;;-4.10;99.90;;;;;;5114493;28;20460;-76
2021/04/06 05:03:41;;;;;;;11.37;3.93;;;-4.10;99.90;;;;;;5114703;28;20428;-75
2021/04/06 05:06:08;;;;;;;7.40;3.40;;;-4.10;99.90;;;;;;5114525;28;20527;-76
2021/04/06 05:08:34;;;;;;;10.80;3.00;;;-4.20;99.90;;;;;;5114713;28;20429;-75
2021/04/06 05:11:01;;;;;;;7.30;2.77;;;-4.20;99.90;;;;;;5105808;28;20976;-75
2021/04/06 05:13:28;;;;;;;11.10;2.80;;;-4.30;99.90;;;;;;5106032;28;20444;-74
2021/04/06 05:15:56;;;;;;;5.83;3.10;;;-4.30;99.90;;;;;;5102932;28;20942;-75
2021/04/06 05:18:22;;;;;;;6.03;2.37;;;-4.20;99.90;;;;;;5104120;28;20941;-75
2021/04/06 05:20:49;;;;;;;3.90;1.67;;;-4.20;99.90;;;;;;5105009;28;20437;-75
2021/04/06 05:23:16;;;;;;;4.00;2.53;;;-4.10;99.90;;;;;;5102478;28;20426;-69
2021/04/06 05:25:44;;;;;;;1.80;1.70;;;-4.00;99.90;;;;;;5108106;28;20865;-66
2021/04/06 05:28:11;;;;;;;2.33;1.90;;;-3.80;99.90;;;;;;5113994;28;20481;-65
2021/04/06 05:30:38;;;;;;;7.70;2.60;;;-3.70;99.90;;;;;;5113605;28;20467;-66
2021/04/06 05:33:06;;;;;;;6.63;2.47;;;-3.50;99.90;;;;;;5113806;28;20460;-67
2021/04/06 05:35:33;;;;;;;5.40;2.50;;;-3.50;99.90;;;;;;5113818;28;20485;-67
2021/04/06 05:38:09;;;;;;;4.47;2.23;;;-3.40;99.90;;;;;;5113938;28;20823;-67
2021/04/06 05:40:56;;;;;;;6.17;2.27;;;-3.40;99.90;;;;;;5113725;27;20467;-68
2021/04/06 05:43:28;;;;;;;3.47;2.20;;;-3.40;99.90;;;;;;5113692;28;20428;-69
2021/04/06 05:45:55;;;;;;;3.07;2.50;;;-3.30;99.90;;;;;;5114137;28;20412;-68
2021/04/06 05:48:23;;;;;;;4.27;2.10;;;-3.30;99.90;;;;;;5112098;28;20421;-68
2021/04/06 05:50:53;;;;;;;3.03;2.17;;;-3.30;99.90;;;;;;5112711;28;20507;-68
2021/04/06 05:53:21;;;;;;;4.80;2.13;;;-3.30;99.90;;;;;;5113347;28;20437;-66
2021/04/06 05:55:47;;;;;;;3.53;2.17;;;-3.30;99.90;;;;;;5113540;28;20849;-66
2021/04/06 05:58:14;;;;;;;5.63;1.70;;;-3.30;99.90;;;;;;5113246;28;20426;-65
2021/04/06 06:00:41;;;;;;;2.40;2.23;;;-3.30;99.90;;;;;;5113209;28;20435;-67
2021/04/06 06:03:09;;;;;;;2.03;1.80;;;-3.20;99.90;;;;;;5112970;28;20464;-69
2021/04/06 06:05:37;;;;;;;5.50;2.00;;;-3.30;99.90;;;;;;5111878;28;20436;-68
2021/04/06 06:08:12;;;;;;;3.37;2.10;;;-3.10;99.90;;;;;;5113065;28;20445;-70
2021/04/06 06:10:40;;;;;;;2.27;1.70;;;-3.00;99.90;;;;;;5113522;28;20971;-69
2021/04/06 06:13:18;;;;;;;2.03;1.60;;;-3.00;99.90;;;;;;5113394;28;20933;-70
2021/04/06 06:16:12;;;;;;;3.13;2.27;;;-2.80;99.90;;;;;;5113227;28;20914;-71
2021/04/06 06:19:00;;;;;;;3.67;1.83;;;-2.80;99.90;;;;;;5113042;28;20463;-71
2021/04/06 06:21:43;;;;;;;4.80;1.77;;;-2.70;99.90;;;;;;5112807;28;20455;-71
2021/04/06 06:24:11;;;;;;;2.37;2.10;;;-2.70;99.90;;;;;;5113325;28;20513;-70
2021/04/06 06:26:39;;;;;;;6.43;2.10;;;-2.70;99.90;;;;;;5111692;28;20436;-70
2021/04/06 06:29:10;;;;;;;2.50;2.30;;;-2.60;99.90;;;;;;5104287;28;20522;-70
2021/04/06 06:31:41;;;;;;;2.30;1.43;;;-2.50;99.90;;;;;;5112842;28;20473;-71
2021/04/06 06:34:27;;;;;;;3.73;2.07;;;-2.40;99.90;;;;;;5113056;28;20997;-71
2021/04/06 06:37:06;;;;;;;6.30;2.40;;;-2.40;99.90;;;;;;5112558;28;20827;-70
2021/04/06 06:39:33;;;;;;;1.80;1.63;;;-2.30;99.90;;;;;;5112629;28;20432;-71
2021/04/06 06:42:02;;;;;;;3.57;2.50;;;-2.20;99.90;;;;;;5112688;28;20442;-71
2021/04/06 06:44:31;;;;;;;6.80;1.87;;;-2.20;99.90;;;;;;5112089;28;20433;-70
2021/04/06 06:47:05;;;;;;;3.73;2.10;;;-2.00;99.90;;;;;;5111719;28;20443;-70
2021/04/06 06:49:35;;;;;;;5.60;1.80;;;-1.90;99.90;;;;;;5111768;28;20412;-70
2021/04/06 06:52:03;;;;;;;2.30;2.10;;;-1.90;99.90;;;;;;5112139;28;20459;-71
2021/04/06 06:54:38;;;;;;;8.17;3.17;;;-1.90;99.90;;;;;;5112075;28;20420;-70
2021/04/06 06:57:10;;;;;;;8.20;4.07;;;-2.00;99.90;;;;;;5111918;28;20502;-70
2021/04/06 06:59:39;;;;;;;1.50;1.40;;;-1.90;99.90;;;;;;5111884;28;20508;-69
2021/04/06 07:02:23;;;;;;;2.60;2.37;;;-2.00;99.90;;;;;;5112144;28;20460;-71
2021/04/06 07:04:50;;;;;;;2.87;2.60;;;-2.00;99.90;;;;;;5112048;28;20511;-71
2021/04/06 07:07:17;;;;;;;6.57;3.20;;;-1.90;99.90;;;;;;5112355;28;20839;-70
2021/04/06 07:09:45;;;;;;;7.93;2.40;;;-1.90;99.90;;;;;;5111897;28;20782;-72
2021/04/06 07:12:15;;;;;;;3.70;1.93;;;-1.70;99.90;;;;;;5111594;28;20980;-70
2021/04/06 07:14:43;;;;;;;12.43;2.37;;;-1.70;99.90;;;;;;5111959;28;20442;-71
2021/04/06 07:17:11;;;;;;;1.90;1.80;;;-1.70;99.90;;;;;;5111785;28;20432;-70
2021/04/06 07:19:40;;;;;;;4.00;1.43;;;-1.60;99.90;;;;;;5111767;28;20626;-70
2021/04/06 07:22:10;;;;;;;8.30;2.20;;;-1.60;99.90;;;;;;5112015;28;20462;-69
2021/04/06 07:24:37;;;;;;;5.47;1.60;;;-1.60;99.90;;;;;;5111679;28;20420;-70
2021/04/06 07:27:07;;;;;;;2.47;2.27;;;-1.50;99.90;;;;;;5111427;28;20452;-70
2021/04/06 07:29:34;;;;;;;4.40;2.13;;;-1.60;99.90;;;;;;5111512;28;20422;-71
2021/04/06 07:32:02;;;;;;;6.03;2.43;;;-1.60;99.90;;;;;;5111461;28;20456;-70
2021/04/06 07:34:29;;;;;;;1.50;1.40;;;-1.50;99.90;;;;;;5111902;28;20483;-70
2021/04/06 07:37:00;;;;;;;4.90;1.87;;;-1.30;99.90;;;;;;5112030;28;20424;-71
2021/04/06 07:39:27;;;;;;;2.97;1.50;;;-1.20;99.90;;;;;;5111496;28;20432;-70
2021/04/06 07:41:54;;;;;;;2.30;1.90;;;-1.20;99.90;;;;;;5110438;28;20463;-69
2021/04/06 07:44:22;;;;;;;2.37;1.50;;;-1.10;99.90;;;;;;5111496;28;20454;-70
2021/04/06 07:46:50;;;;;;;6.47;2.03;;;-0.90;99.90;;;;;;5112439;28;20469;-70
2021/04/06 07:49:40;;;;;;;2.70;2.00;;;-0.90;99.90;;;;;;5111366;28;20428;-70
2021/04/06 07:52:17;;;;;;;10.13;3.30;;;-0.90;99.90;;;;;;5112111;28;20444;-70
2021/04/06 07:54:47;;;;;;;3.23;2.90;;;-0.80;99.90;;;;;;5111576;27;20456;-70
2021/04/06 07:57:15;;;;;;;2.60;2.40;;;-0.80;99.90;;;;;;5111165;28;20467;-70
2021/04/06 08:00:00;;;;;;;4.63;2.80;;;-1.10;99.90;;;;;;5111072;28;20469;-70
2021/04/06 08:02:32;;;;;;;4.03;2.83;;;-1.10;99.90;;;;;;5111581;28;21070;-69
2021/04/06 08:05:07;;;;;;;3.63;2.27;;;-1.10;99.90;;;;;;5111338;28;20466;-69
2021/04/06 08:07:36;;;;;;;7.83;2.40;;;-1.00;99.90;;;;;;5111447;28;20434;-69
2021/04/06 08:10:34;;;;;;;4.93;2.90;;;-1.10;99.90;;;;;;5111150;28;20943;-69
2021/04/06 08:13:01;;;;;;;6.73;2.50;;;-1.00;99.90;;;;;;5111156;28;20451;-68
2021/04/06 08:15:33;;;;;;;2.63;2.27;;;-1.00;99.90;;;;;;5111130;28;20431;-69
2021/04/06 08:18:00;;;;;;;8.93;3.13;;;-0.80;99.90;;;;;;5111126;28;20450;-69
2021/04/06 08:20:39;;;;;;;4.87;3.30;;;-0.80;99.90;;;;;;5111148;28;20428;-69
2021/04/06 08:23:07;;;;;;;4.60;3.17;;;-1.00;99.90;;;;;;5111142;28;20483;-69
2021/04/06 08:25:49;;;;;;;6.53;2.90;;;-0.90;99.90;;;;;;5110881;28;20842;-69
2021/04/06 08:28:40;;;;;;;2.83;2.63;;;-0.60;99.90;;;;;;5111379;28;20432;-68
2021/04/06 08:31:23;;;;;;;9.70;2.00;;;-0.80;99.90;;;;;;5110812;28;20475;-69
2021/04/06 08:33:50;;;;;;;9.13;2.00;;;-0.80;99.90;;;;;;5110877;28;20442;-68
2021/04/06 08:36:28;;;;;;;3.83;2.13;;;-0.90;99.90;;;;;;5110895;28;20452;-68
2021/04/06 08:38:57;;;;;;;6.30;3.40;;;-1.00;99.90;;;;;;5111001;28;20439;-68
2021/04/06 08:41:38;;;;;;;3.13;2.13;;;-0.90;99.90;;;;;;5110458;28;20448;-69
2021/04/06 08:44:10;;;;;;;4.40;1.93;;;-0.70;99.90;;;;;;5110980;28;20488;-69
2021/04/06 08:46:50;;;;;;;2.80;2.33;;;-0.70;99.90;;;;;;5110836;28;20773;-69
2021/04/06 08:49:20;;;;;;;2.30;1.90;;;-0.60;99.90;;;;;;5110712;28;20428;-69
2021/04/06 08:51:49;;;;;;;5.20;2.50;;;-0.30;99.90;;;;;;5110798;28;20559;-69
2021/04/06 08:54:20;;;;;;;22.87;2.40;;;-0.20;99.90;;;;;;5114184;28;20424;-69
2021/04/06 08:56:49;;;;;;;4.50;2.10;;;-0.10;99.90;;;;;;5114464;28;20428;-69
2021/04/06 08:59:18;;;;;;;4.13;2.13;;;0.00;99.90;;;;;;5113486;28;20448;-69
2021/04/06 09:01:55;;;;;;;3.03;2.27;;;0.10;99.90;;;;;;5114441;28;20454;-69
2021/04/06 09:04:23;;;;;;;6.43;2.77;;;0.10;99.90;;;;;;5114460;28;20428;-70
2021/04/06 09:06:51;;;;;;;3.90;2.40;;;0.10;99.90;;;;;;5114364;28;20430;-69
2021/04/06 09:09:19;;;;;;;4.40;1.83;;;0.30;99.90;;;;;;5113897;28;20446;-71
2021/04/06 09:11:47;;;;;;;5.93;2.60;;;0.30;99.90;;;;;;5114191;28;20471;-71
2021/04/06 09:14:15;;;;;;;2.03;1.80;;;0.30;99.90;;;;;;5114253;28;20470;-72
2021/04/06 09:16:42;;;;;;;8.90;2.37;;;0.40;99.90;;;;;;5114313;28;20831;-72
2021/04/06 09:19:12;;;;;;;5.03;2.27;;;0.50;99.90;;;;;;5113735;28;20440;-72
2021/04/06 09:21:42;;;;;;;4.23;2.03;;;0.40;99.90;;;;;;5114180;28;20452;-70
2021/04/06 09:24:11;;;;;;;4.40;2.33;;;0.30;99.90;;;;;;5114104;28;20521;-72
2021/04/06 09:26:39;;;;;;;4.97;1.80;;;0.20;99.90;;;;;;5113895;28;20475;-71
2021/04/06 09:29:10;;;;;;;5.33;2.13;;;0.20;99.90;;;;;;5113732;28;20428;-71
2021/04/06 09:31:54;;;;;;;3.00;2.17;;;0.20;99.90;;;;;;5113618;28;20467;-71
2021/04/06 09:34:29;;;;;;;2.77;2.17;;;0.40;99.90;;;;;;5113782;28;20510;-71
2021/04/06 09:37:07;;;;;;;3.77;1.90;;;0.30;99.90;;;;;;5113941;28;20455;-71
2021/04/06 09:39:39;;;;;;;4.83;2.20;;;0.30;99.90;;;;;;5113675;28;20488;-70
2021/04/06 09:42:12;;;;;;;3.10;2.20;;;0.40;99.90;;;;;;5113197;28;20546;-72
2021/04/06 09:44:46;;;;;;;2.80;1.60;;;0.30;99.90;;;;;;5113611;28;20489;-71
2021/04/06 09:47:15;;;;;;;8.70;2.93;;;0.20;99.90;;;;;;5113622;28;20507;-70
2021/04/06 09:49:54;;;;;;;7.27;5.33;;;0.30;99.90;;;;;;5113401;28;20463;-71
2021/04/06 09:52:32;;;;;;;7.67;3.77;;;0.30;99.90;;;;;;5113661;28;20507;-71
2021/04/06 09:55:04;;;;;;;9.23;5.63;;;0.40;99.90;;;;;;5113384;27;20430;-71
2021/04/06 09:57:37;;;;;;;3.87;1.80;;;0.30;99.90;;;;;;5113229;28;20432;-71
2021/04/06 10:00:11;;;;;;;6.87;2.63;;;0.30;99.90;;;;;;5113252;28;20432;-71
2021/04/06 10:02:42;;;;;;;6.77;2.10;;;0.40;99.90;;;;;;5113119;28;20501;-72
2021/04/06 10:05:20;;;;;;;9.50;2.40;;;0.50;99.90;;;;;;5112483;28;20444;-71
2021/04/06 10:07:52;;;;;;;2.50;1.60;;;0.60;99.90;;;;;;5113169;28;20428;-71
2021/04/06 10:10:31;;;;;;;7.20;2.27;;;0.50;99.90;;;;;;5113145;28;20470;-70
2021/04/06 10:13:01;;;;;;;3.73;2.10;;;0.40;99.90;;;;;;5112741;28;20532;-70
2021/04/06 10:15:52;;;;;;;10.13;1.93;;;0.60;99.90;;;;;;5113135;28;20450;-70
2021/04/06 10:18:22;;;;;;;2.70;1.37;;;0.60;99.90;;;;;;5112708;28;21081;-70
2021/04/06 10:20:56;;;;;;;6.60;2.30;;;0.60;99.90;;;;;;5112719;28;20532;-71
2021/04/06 10:23:32;;;;;;;5.50;1.47;;;0.80;99.90;;;;;;5112959;28;20973;-71
2021/04/06 10:26:09;;;;;;;10.03;1.73;;;0.90;99.90;;;;;;5112796;28;20427;-71
2021/04/06 10:28:40;;;;;;;4.80;2.00;;;1.10;99.90;;;;;;5112970;28;20819;-72
2021/04/06 10:31:12;;;;;;;4.03;2.00;;;1.30;99.90;;;;;;5112495;28;20502;-70
2021/04/06 10:33:42;;;;;;;8.40;2.50;;;1.30;99.90;;;;;;5112532;28;20911;-72
2021/04/06 10:36:20;;;;;;;4.43;2.07;;;0.80;99.90;;;;;;5112630;28;20421;-71
2021/04/06 10:39:01;;;;;;;4.20;1.30;;;0.80;99.90;;;;;;5112401;28;20417;-71
2021/04/06 10:41:34;;;;;;;3.20;2.30;;;0.90;99.90;;;;;;5112270;28;20452;-72
2021/04/06 10:44:04;;;;;;;3.00;1.63;;;0.80;99.90;;;;;;5112357;28;20440;-71
2021/04/06 10:46:49;;;;;;;3.57;1.73;;;0.90;99.90;;;;;;5112618;27;20436;-71
2021/04/06 10:49:17;;;;;;;3.40;1.70;;;1.10;99.90;;;;;;5111837;28;20920;-71
2021/04/06 10:51:52;;;;;;;1.43;1.20;;;1.10;99.90;;;;;;5112065;28;20478;-72
2021/04/06 10:54:28;;;;;;;2.63;1.73;;;0.90;99.90;;;;;;5112138;28;20801;-71
2021/04/06 10:56:59;;;;;;;5.73;2.10;;;0.90;99.90;;;;;;5111906;28;20537;-71
2021/04/06 10:59:32;;;;;;;3.53;1.70;;;1.10;99.90;;;;;;5112308;28;20427;-71
2021/04/06 11:02:01;;;;;;;2.50;1.63;;;1.20;99.90;;;;;;5112073;28;20523;-71
2021/04/06 11:04:40;;;;;;;7.30;2.00;;;1.40;99.90;;;;;;5112267;28;20424;-72
2021/04/06 11:07:15;;;;;;;1.80;1.50;;;1.50;99.90;;;;;;5112068;28;20424;-71
2021/04/06 11:09:47;;;;;;;2.07;1.60;;;1.40;99.90;;;;;;5111790;28;20516;-72
2021/04/06 11:12:15;;;;;;;5.10;2.63;;;1.20;99.90;;;;;;5111023;28;20826;-71
2021/04/06 11:14:49;;;;;;;2.27;1.70;;;1.10;99.90;;;;;;5112372;28;20424;-70
2021/04/06 11:17:16;;;;;;;3.67;2.10;;;1.10;99.90;;;;;;5110903;28;21015;-70
2021/04/06 11:19:52;;;;;;;3.27;1.70;;;1.00;99.90;;;;;;5110783;28;20530;-70
2021/04/06 11:22:25;;;;;;;7.90;1.60;;;1.20;99.90;;;;;;5111369;28;20455;-70
2021/04/06 11:24:53;;;;;;;5.23;1.93;;;1.50;99.90;;;;;;5111737;28;20428;-70
2021/04/06 11:27:33;;;;;;;3.83;1.80;;;1.70;99.90;;;;;;5111545;28;20443;-70
2021/04/06 11:30:01;;;;;;;4.30;1.67;;;1.80;99.90;;;;;;5111335;28;20900;-69
2021/04/06 11:32:30;;;;;;;2.00;1.43;;;1.90;99.90;;;;;;5111482;28;20544;-70
2021/04/06 11:34:57;;;;;;;4.40;1.40;;;2.10;99.90;;;;;;5111574;28;20442;-70
2021/04/06 11:37:28;;;;;;;6.80;2.40;;;2.40;99.90;;;;;;5110982;28;20447;-70
2021/04/06 11:39:58;;;;;;;4.67;1.60;;;2.50;99.90;;;;;;5111203;28;20432;-69
2021/04/06 11:42:33;;;;;;;5.10;1.90;;;2.50;99.90;;;;;;5111176;28;20448;-69
2021/04/06 11:45:13;;;;;;;5.20;1.80;;;2.70;99.90;;;;;;5111274;28;20424;-70
2021/04/06 11:47:40;;;;;;;1.60;1.50;;;2.70;99.90;;;;;;5111448;28;20428;-70
2021/04/06 11:50:10;;;;;;;2.77;1.50;;;2.70;99.90;;;;;;5111088;28;20420;-70
2021/04/06 11:52:41;;;;;;;2.97;1.50;;;3.10;99.90;;;;;;5111246;28;20527;-70
2021/04/06 11:55:09;;;;;;;1.50;1.40;;;3.30;99.90;;;;;;5111162;28;20444;-70
2021/04/06 11:57:45;;;;;;;2.90;1.33;;;3.30;99.90;;;;;;5101877;28;20525;-69
2021/04/06 12:00:22;;;;;;;5.50;1.80;;;3.40;99.90;;;;;;5090976;28;20729;-70
2021/04/06 12:02:49;;;;;;;1.63;1.23;;;3.30;99.90;;;;;;5090768;28;20452;-71
2021/04/06 12:05:15;;;;;;;3.70;1.57;;;3.50;99.90;;;;;;5090944;28;20429;-70
2021/04/06 12:07:43;;;;;;;2.23;1.50;;;3.50;99.90;;;;;;5091031;28;20821;-70
2021/04/06 12:10:11;;;;;;;1.77;1.47;;;3.40;99.90;;;;;;5090970;28;20916;-69
2021/04/06 12:12:38;;;;;;;3.13;1.20;;;3.20;99.90;;;;;;5090480;28;20541;-69
2021/04/06 12:15:06;;;;;;;2.13;1.07;;;3.00;99.90;;;;;;5091336;28;20433;-70
2021/04/06 12:17:33;;;;;;;2.77;1.40;;;2.80;99.90;;;;;;5090599;28;20421;-69
2021/04/06 12:20:00;;;;;;;4.47;1.73;;;2.70;99.90;;;;;;5090772;28;20489;-69
2021/04/06 12:22:26;;;;;;;4.30;1.40;;;2.60;99.90;;;;;;5090435;28;20461;-69
2021/04/06 12:24:54;;;;;;;4.50;1.57;;;2.50;99.90;;;;;;5090599;28;20437;-69
2021/04/06 12:27:21;;;;;;;4.00;1.83;;;3.00;99.90;;;;;;5106800;28;20469;-69
2021/04/06 12:29:48;;;;;;;3.00;2.13;;;3.50;99.90;;;;;;5115077;28;20916;-69
2021/04/06 12:32:14;;;;;;;5.10;2.63;;;3.70;99.90;;;;;;5114769;28;20475;-69
2021/04/06 12:34:41;;;;;;;1.63;1.10;;;3.70;99.90;;;;;;5114906;28;20466;-69
2021/04/06 12:37:08;;;;;;;3.27;1.60;;;3.40;97.50;;;;;;5114893;28;20423;-70
2021/04/06 12:39:35;;;;;;;2.50;2.13;;;3.30;99.20;;;;;;5114713;28;20436;-69
2021/04/06 12:42:02;;;;;;;8.73;2.93;;;2.90;99.90;;;;;;5114626;28;20816;-67
2021/04/06 12:44:29;;;;;;;4.07;2.70;;;2.80;99.90;;;;;;5114663;28;20436;-68
2021/04/06 12:46:56;;;;;;;6.70;2.80;;;2.70;99.90;;;;;;5114859;28;20966;-67
2021/04/06 12:49:23;;;;;;;4.27;2.53;;;2.30;99.90;;;;;;5114478;28;20424;-67
2021/04/06 12:51:49;;;;;;;5.47;4.40;;;1.90;99.90;;;;;;5114420;28;20609;-67
2021/04/06 12:54:16;;;;;;;4.20;3.50;;;1.60;99.90;;;;;;5114539;28;20427;-68
2021/04/06 12:56:43;;;;;;;4.00;2.33;;;1.50;99.90;;;;;;5114266;28;20513;-67
2021/04/06 12:59:11;;;;;;;5.40;3.47;;;1.40;99.90;;;;;;5114564;28;20427;-68
2021/04/06 13:01:37;;;;;;;3.63;2.93;;;1.40;99.90;;;;;;5114487;28;20698;-67
2021/04/06 13:04:04;;;;;;;7.53;4.77;;;1.20;99.90;;;;;;5114261;28;20509;-70
2021/04/06 13:06:31;;;;;;;5.83;3.87;;;0.90;99.90;;;;;;5114399;28;20464;-68
2021/04/06 13:08:58;;;;;;;7.20;3.77;;;0.90;99.90;;;;;;5114364;28;20420;-70